首页
METAR-TAF:

METAR-TAF

机场 :

拉塞乌杜尔赫利, 西班牙

纬度: 42-20-29N, 经度: 001-24-17E, 海拔: 802米

当前天气观测

该预报发布于1小时和57分钟前的17:00 UTC
风速13节,风向南转西南
温度 34°C
湿度 16%
气压 1022 hPa
能见度10公里或以上
少量云层高于7000英尺

METAR: LESU 221700Z 20013KT 9999 FEW070 34/05 Q1022

时间: 20:57 (18:57 UTC)

预报

该预报发布于4小时和57分钟前的14:00 UTC
预报有效从22日的 15点(UTC)到 23日的 15点(UTC)
风速10节,风向
能见度10公里或以上
少量云层高于6000英尺
几率 40% :
短暂存在
从 22日的 15点(UTC)到 22日的 18点(UTC)
风速20节,风向
能見度: 4000
散云层高于4000英尺, 积雨云.
多云层高于5000英尺
雷暴, 雨
成为
从 22日的 19点(UTC)到 22日的 21点(UTC)
风速3节,风向多变
成为
从 23日的 12点(UTC)到 23日的 14点(UTC)
风速12节,风向

TAF: LESU 221400Z 2215/2315 19010KT 9999 FEW060 TX35/2315Z TN18/2305Z PROB40 TEMPO 2215/2218 19020KT 4000 TSRA SCT040CB BKN050 BECMG 2219/2221 VRB03KT BECMG 2312/2314 19012KT

超过4000个机场的气象观测和天气预报(METAR&TAF报告)。

可查询的气象台以黄色和红色小点在地图上表示。

将鼠标移到小点上方,可查看气象台名称。

然后点击查看天气观测和预报。

如需切换地图:点击带黑十字的绿色按钮放大地图;点击带横线的绿色按钮缩小地图;或者点击绿色箭头查看邻近地区的地图。


METAR-TAF: